Time;durP1;ratioP1;P1;durP2;ratioP2;P2;SDS_P1;SDS_P2;PMS_P1;PMS_P2;Temp;Humidity;BMP_temperature;BMP_pressure;BME280_temperature;BME280_humidity;BME280_pressure;Samples;Min_cycle;Max_cycle;Signal;HPM_P1;HPM_P2
2023/12/16 00:01:19;;;;;;;21.80;13.60;;;;;;;3.07;82.69;94730.94;2051760;69;20146;-85
2023/12/16 00:03:45;;;;;;;24.42;13.73;;;;;;;3.12;82.17;94729.41;2051559;69;20221;-87
2023/12/16 00:06:10;;;;;;;21.52;12.45;;;;;;;3.11;82.08;94734.19;2051720;70;20150;-87
2023/12/16 00:08:36;;;;;;;19.83;12.65;;;;;;;3.05;82.38;94741.81;2051469;70;20158;-88
2023/12/16 00:11:02;;;;;;;20.73;12.75;;;;;;;2.98;82.38;94747.91;2048250;70;20136;-82
2023/12/16 00:13:28;;;;;;;28.83;16.60;;;;;;;2.66;84.27;94750.31;2051654;70;20143;-83
2023/12/16 00:15:53;;;;;;;29.83;16.83;;;;;;;2.77;84.43;94764.16;2051533;70;20169;-83
2023/12/16 00:18:20;;;;;;;30.98;15.80;;;;;;;2.85;83.58;94753.28;2051582;70;20506;-86
2023/12/16 00:20:46;;;;;;;28.48;16.23;;;;;;;2.92;83.36;94758.28;2054943;69;20153;-83
2023/12/16 00:23:12;;;;;;;25.20;15.43;;;;;;;2.88;83.23;94761.34;2055036;69;20153;-82
2023/12/16 00:25:38;;;;;;;27.77;15.60;;;;;;;2.95;83.30;94757.28;2052226;70;20138;-87
2023/12/16 00:28:03;;;;;;;27.38;15.70;;;;;;;2.98;82.84;94753.50;2051808;70;20579;-86
2023/12/16 00:30:29;;;;;;;24.67;15.20;;;;;;;2.96;83.10;94748.41;2051825;70;20162;-88
2023/12/16 00:32:54;;;;;;;26.63;15.55;;;;;;;2.97;82.92;94743.59;2051963;70;20296;-88
2023/12/16 00:35:20;;;;;;;25.38;14.50;;;;;;;2.99;82.81;94736.28;2051228;70;20186;-86
2023/12/16 00:37:49;;;;;;;26.33;14.82;;;;;;;2.94;82.87;94720.34;2051691;70;20238;-85
2023/12/16 00:40:14;;;;;;;23.08;13.50;;;;;;;3.03;82.76;94733.22;2051586;70;20217;-88
2023/12/16 00:42:40;;;;;;;22.75;13.77;;;;;;;2.98;83.28;94739.56;2051239;70;20216;-86
2023/12/16 00:45:07;;;;;;;22.75;13.55;;;;;;;2.92;83.50;94739.56;2051848;70;20137;-84
2023/12/16 00:47:40;;;;;;;23.77;14.80;;;;;;;2.67;83.71;94724.00;2051774;70;20157;-85
2023/12/16 00:50:09;;;;;;;23.33;14.38;;;;;;;2.93;83.52;94746.69;2051623;70;20162;-87
2023/12/16 00:52:35;;;;;;;22.15;13.52;;;;;;;2.97;83.13;94743.59;2053958;70;20221;-87
2023/12/16 00:55:01;;;;;;;21.90;13.50;;;;;;;2.97;83.34;94746.38;2051523;70;20154;-86
2023/12/16 00:57:26;;;;;;;25.77;14.52;;;;;;;2.97;83.61;94768.66;2051878;70;20148;-85
2023/12/16 00:59:52;;;;;;;22.90;13.93;;;;;;;2.98;83.27;94761.84;2051627;70;20126;-87
2023/12/16 01:02:18;;;;;;;24.17;14.15;;;;;;;2.85;83.49;94753.28;2051780;70;20146;-85
2023/12/16 01:04:44;;;;;;;24.77;14.23;;;;;;;2.83;84.02;94770.47;2051482;70;20138;-85
2023/12/16 01:07:09;;;;;;;25.27;14.82;;;;;;;2.88;83.24;94766.91;2052138;70;20178;-85
2023/12/16 01:09:35;;;;;;;20.05;13.32;;;;;;;2.88;82.70;94768.94;2052458;70;20146;-86
2023/12/16 01:12:02;;;;;;;23.17;13.57;;;;;;;2.78;83.33;94774.78;2052404;70;20180;-85
2023/12/16 01:14:27;;;;;;;22.27;14.23;;;;;;;2.68;83.92;94781.88;2051409;70;20154;-85
2023/12/16 01:16:53;;;;;;;24.92;14.60;;;;;;;2.45;84.43;94788.75;2051706;70;20143;-85
2023/12/16 01:19:19;;;;;;;21.80;14.15;;;;;;;2.73;83.83;94797.03;2052453;70;20173;-84
2023/12/16 01:21:45;;;;;;;23.75;13.88;;;;;;;2.72;84.04;94795.53;2052951;70;20165;-86
2023/12/16 01:24:11;;;;;;;24.58;14.30;;;;;;;2.80;84.09;94805.63;2052889;70;20147;-84
2023/12/16 01:26:40;;;;;;;23.70;14.02;;;;;;;2.85;83.69;94801.31;2051816;70;20158;-80
2023/12/16 01:29:05;;;;;;;23.05;13.82;;;;;;;2.83;83.84;94801.06;2046034;70;20610;-82
2023/12/16 01:31:31;;;;;;;21.90;13.02;;;;;;;2.93;83.48;94809.88;2051071;70;20149;-83
2023/12/16 01:33:58;;;;;;;20.63;12.43;;;;;;;2.98;82.83;94834.94;2050967;70;20150;-85
2023/12/16 01:36:24;;;;;;;21.95;13.02;;;;;;;2.86;83.87;94838.25;2051042;70;20194;-84
2023/12/16 01:38:49;;;;;;;21.23;12.90;;;;;;;2.45;85.87;94833.25;2051370;70;20178;-83
2023/12/16 01:41:15;;;;;;;25.73;14.25;;;;;;;2.48;86.75;94829.47;2051391;70;20177;-82
2023/12/16 01:43:40;;;;;;;23.23;13.85;;;;;;;2.77;85.29;94828.16;2052623;70;20463;-85
2023/12/16 01:46:07;;;;;;;22.23;13.68;;;;;;;2.77;84.31;94830.94;2050814;70;20158;-83
2023/12/16 01:48:34;;;;;;;24.33;13.95;;;;;;;2.74;84.08;94824.34;2053463;70;20177;-85
2023/12/16 01:51:01;;;;;;;23.25;13.00;;;;;;;2.49;84.58;94814.28;2051197;70;20171;-85
2023/12/16 01:53:29;;;;;;;20.73;12.73;;;;;;;2.69;84.46;94813.22;2048420;70;20599;-85
2023/12/16 01:55:55;;;;;;;23.25;12.88;;;;;;;2.74;83.56;94812.47;2051711;70;20249;-83
2023/12/16 01:58:22;;;;;;;28.35;13.43;;;;;;;2.83;83.62;94814.22;2051772;70;20150;-85
2023/12/16 02:00:51;;;;;;;21.75;13.13;;;;;;;2.84;83.67;94813.72;2050996;70;20154;-86
2023/12/16 02:03:22;;;;;;;27.65;14.23;;;;;;;2.78;83.51;94818.53;2051600;70;20170;-84
2023/12/16 02:05:47;;;;;;;21.55;12.82;;;;;;;2.74;83.29;94809.69;2051621;69;20131;-85
2023/12/16 02:08:14;;;;;;;21.42;12.25;;;;;;;2.69;83.72;94810.44;2051476;69;20175;-84
2023/12/16 02:10:39;;;;;;;21.05;13.13;;;;;;;2.65;83.37;94807.91;2051085;70;20166;-84
2023/12/16 02:13:06;;;;;;;22.30;11.95;;;;;;;2.50;84.32;94799.09;2051546;70;20231;-82
2023/12/16 02:15:32;;;;;;;18.95;11.07;;;;;;;2.58;83.35;94791.78;2051608;70;20158;-84
2023/12/16 02:17:59;;;;;;;16.67;10.48;;;;;;;2.57;82.83;94789.47;2053878;69;20138;-83
2023/12/16 02:20:26;;;;;;;16.95;10.30;;;;;;;2.54;83.03;94789.25;2051522;70;20662;-84
2023/12/16 02:22:53;;;;;;;10.43;6.68;;;;;;;2.48;81.53;94791.28;2051490;70;20178;-84
2023/12/16 02:25:24;;;;;;;11.73;6.18;;;;;;;2.58;81.13;94794.56;2051491;70;20180;-83
2023/12/16 02:27:51;;;;;;;13.70;8.18;;;;;;;2.51;80.89;94801.38;2051055;70;20182;-84
2023/12/16 02:30:23;;;;;;;14.13;8.38;;;;;;;2.49;81.76;94805.94;2051538;70;20545;-84
2023/12/16 02:32:49;;;;;;;14.93;7.70;;;;;;;2.24;83.00;94796.59;2051952;69;20147;-84
2023/12/16 02:35:14;;;;;;;11.13;7.05;;;;;;;2.02;82.86;94780.69;2050635;70;20144;-83
2023/12/16 02:37:40;;;;;;;10.57;6.80;;;;;;;2.27;82.23;94787.25;2051431;70;20681;-83
2023/12/16 02:40:06;;;;;;;10.80;6.30;;;;;;;2.23;81.29;94781.19;2051479;69;20169;-84
2023/12/16 02:42:32;;;;;;;8.82;5.72;;;;;;;2.20;81.40;94798.84;2051544;69;20594;-82
2023/12/16 02:44:57;;;;;;;10.30;6.20;;;;;;;2.03;82.11;94796.09;2051317;70;20236;-84
2023/12/16 02:47:23;;;;;;;12.40;7.00;;;;;;;1.98;81.98;94810.75;2051476;70;20155;-83
2023/12/16 02:49:49;;;;;;;13.02;7.68;;;;;;;1.93;81.59;94795.59;2051437;70;20615;-82
2023/12/16 02:52:16;;;;;;;13.20;7.70;;;;;;;2.06;81.77;94819.31;2050923;70;20156;-85
2023/12/16 02:54:41;;;;;;;15.27;8.77;;;;;;;2.06;82.01;94822.09;2051364;70;20147;-83
2023/12/16 02:57:07;;;;;;;12.13;6.88;;;;;;;2.07;81.93;94818.09;2051280;69;20154;-82
2023/12/16 02:59:34;;;;;;;11.10;6.57;;;;;;;2.07;82.21;94821.63;2051295;70;20177;-82
2023/12/16 03:01:59;;;;;;;11.13;5.50;;;;;;;2.06;81.69;94825.63;2051277;70;20182;-81
2023/12/16 03:04:25;;;;;;;6.55;4.40;;;;;;;1.89;81.36;94820.06;2053340;69;20585;-85
2023/12/16 03:06:51;;;;;;;8.57;5.40;;;;;;;1.82;81.54;94836.47;2048251;70;20287;-85
2023/12/16 03:09:16;;;;;;;8.55;5.05;;;;;;;1.85;81.38;94829.91;2051144;70;20177;-84
2023/12/16 03:11:43;;;;;;;11.65;7.30;;;;;;;1.87;81.37;94839.25;2051376;70;20142;-84
2023/12/16 03:14:09;;;;;;;11.32;6.50;;;;;;;1.86;81.64;94846.06;2051089;70;20166;-83
2023/12/16 03:16:35;;;;;;;10.93;5.55;;;;;;;1.82;81.59;94848.34;2051396;70;20162;-85
2023/12/16 03:19:01;;;;;;;7.10;4.55;;;;;;;1.65;81.25;94862.19;2048207;70;20212;-83
2023/12/16 03:21:29;;;;;;;8.35;4.50;;;;;;;1.62;81.62;94857.63;2053507;70;20154;-84
2023/12/16 03:23:55;;;;;;;6.35;3.65;;;;;;;1.65;81.05;94848.31;2051332;70;20143;-86
2023/12/16 03:26:21;;;;;;;4.82;3.30;;;;;;;1.57;81.13;94863.94;2051669;69;20307;-82
2023/12/16 03:28:48;;;;;;;5.20;3.40;;;;;;;1.61;80.65;94856.13;2052518;70;20293;-82
2023/12/16 03:31:13;;;;;;;4.25;2.97;;;;;;;1.53;80.62;94857.84;2049268;70;20610;-81
2023/12/16 03:33:39;;;;;;;5.30;2.95;;;;;;;1.56;79.74;94869.97;2050715;70;20178;-83
2023/12/16 03:36:08;;;;;;;7.63;4.05;;;;;;;1.40;81.14;94863.09;2051331;69;20161;-84
2023/12/16 03:38:34;;;;;;;6.50;4.30;;;;;;;1.41;80.75;94851.50;2050724;70;20158;-86
2023/12/16 03:41:00;;;;;;;4.50;3.17;;;;;;;1.48;80.70;94862.13;2051581;69;20147;-85
2023/12/16 03:43:25;;;;;;;3.92;2.70;;;;;;;1.38;80.37;94858.06;2051514;69;20161;-86
2023/12/16 03:45:51;;;;;;;4.43;2.60;;;;;;;1.31;80.94;94841.88;2051327;70;20165;-85
2023/12/16 03:48:17;;;;;;;4.50;2.67;;;;;;;1.30;81.29;94854.25;2051370;70;20150;-86
2023/12/16 03:50:43;;;;;;;3.22;2.40;;;;;;;1.32;80.20;94859.28;2051337;70;20154;-85
2023/12/16 03:53:08;;;;;;;4.40;2.45;;;;;;;1.36;79.81;94862.59;2051204;70;20158;-83
2023/12/16 03:55:34;;;;;;;3.80;2.70;;;;;;;0.83;80.29;94864.09;2050877;70;20145;-87
2023/12/16 03:58:01;;;;;;;4.18;2.40;;;;;;;1.07;80.51;94867.25;2051429;70;20178;-86
2023/12/16 04:00:26;;;;;;;2.90;2.22;;;;;;;1.21;80.23;94857.22;2051421;70;20173;-86
2023/12/16 04:02:52;;;;;;;3.22;2.20;;;;;;;1.23;79.04;94849.91;2050762;70;20147;-86
2023/12/16 04:05:18;;;;;;;3.28;2.10;;;;;;;1.25;79.02;94850.19;2051380;69;20227;-85
2023/12/16 04:07:44;;;;;;;5.32;2.30;;;;;;;1.18;79.00;94844.34;2051303;70;20599;-85
2023/12/16 04:10:10;;;;;;;3.17;2.10;;;;;;;0.98;79.04;94853.59;2051245;70;20162;-86
2023/12/16 04:12:36;;;;;;;3.47;2.30;;;;;;;0.88;77.87;94855.81;2051190;70;20691;-87
2023/12/16 04:15:02;;;;;;;3.58;1.77;;;;;;;1.04;76.69;94867.47;2050616;70;20162;-86
2023/12/16 04:17:37;;;;;;;3.08;1.77;;;;;;;0.96;75.37;94862.41;2051350;70;20209;-83
2023/12/16 04:20:03;;;;;;;2.65;1.60;;;;;;;0.98;76.01;94861.91;2051150;70;20138;-84
2023/12/16 04:22:28;;;;;;;3.25;1.90;;;;;;;1.03;75.84;94861.16;2051085;70;20145;-84
2023/12/16 04:24:57;;;;;;;2.80;1.90;;;;;;;1.04;76.69;94862.69;2050943;70;20139;-83
2023/12/16 04:27:27;;;;;;;2.88;2.00;;;;;;;1.07;77.53;94864.47;2051074;70;20142;-84
2023/12/16 04:29:53;;;;;;;3.55;1.88;;;;;;;1.02;78.42;94868.75;2050603;70;20146;-82
2023/12/16 04:32:21;;;;;;;2.75;1.95;;;;;;;0.97;79.13;94874.25;2051112;70;20174;-82
2023/12/16 04:34:46;;;;;;;4.82;2.45;;;;;;;0.91;78.20;94882.53;2051089;70;20189;-84
2023/12/16 04:37:13;;;;;;;4.70;2.15;;;;;;;0.90;76.41;94875.47;2051002;70;20213;-85
2023/12/16 04:39:38;;;;;;;3.03;1.70;;;;;;;0.85;76.46;94880.97;2050238;70;20166;-84
2023/12/16 04:42:06;;;;;;;2.15;1.65;;;;;;;0.93;76.83;94882.06;2050927;70;20603;-83
2023/12/16 04:44:33;;;;;;;3.13;1.90;;;;;;;0.82;77.33;94882.72;2050927;70;20233;-86
2023/12/16 04:46:58;;;;;;;2.90;1.90;;;;;;;0.91;77.01;94876.22;2051049;70;20185;-83
2023/12/16 04:49:24;;;;;;;3.03;1.88;;;;;;;1.01;76.36;94878.31;2050949;70;20174;-84
2023/12/16 04:51:52;;;;;;;2.58;1.83;;;;;;;0.97;77.22;94880.56;2050375;70;20614;-82
2023/12/16 04:54:18;;;;;;;2.90;1.85;;;;;;;0.85;77.15;94859.56;2050830;70;20158;-83
2023/12/16 04:56:43;;;;;;;2.28;1.70;;;;;;;0.98;77.14;94868.22;2050579;70;20209;-84
2023/12/16 04:59:10;;;;;;;2.28;1.65;;;;;;;0.87;77.03;94872.91;2050932;70;20169;-84
2023/12/16 05:01:36;;;;;;;2.22;1.75;;;;;;;0.97;76.18;94875.03;2050435;70;20162;-83
2023/12/16 05:04:02;;;;;;;2.65;1.90;;;;;;;0.90;75.51;94872.69;2053149;70;20146;-84
2023/12/16 05:06:27;;;;;;;2.17;1.75;;;;;;;0.83;76.29;94861.31;2051005;70;20602;-87
2023/12/16 05:08:53;;;;;;;6.80;1.83;;;;;;;0.54;74.31;94868.66;2050315;70;20529;-85
2023/12/16 05:11:19;;;;;;;3.08;1.48;;;;;;;0.76;75.29;94873.63;2051060;70;20161;-84
2023/12/16 05:13:46;;;;;;;2.35;1.40;;;;;;;0.74;74.99;94876.13;2051033;70;20511;-81
2023/12/16 05:16:20;;;;;;;1.75;1.30;;;;;;;0.63;74.82;94874.03;2051052;70;20205;-82
2023/12/16 05:18:46;;;;;;;1.60;1.20;;;;;;;0.80;74.72;94873.41;2050944;70;20617;-81
2023/12/16 05:21:12;;;;;;;3.03;1.50;;;;;;;0.70;73.99;94876.34;2051052;70;20165;-82
2023/12/16 05:23:38;;;;;;;2.15;1.60;;;;;;;0.75;75.16;94878.41;2050818;70;20142;-85
2023/12/16 05:26:04;;;;;;;2.95;1.58;;;;;;;0.74;74.14;94876.13;2051586;70;20664;-85
2023/12/16 05:28:31;;;;;;;3.20;1.50;;;;;;;0.76;73.85;94885.47;2051494;70;20153;-85
2023/12/16 05:30:58;;;;;;;2.13;1.55;;;;;;;0.78;74.18;94879.44;2051569;70;20187;-85
2023/12/16 05:33:23;;;;;;;4.53;2.70;;;;;;;0.84;74.36;94883.00;2051578;69;20246;-84
2023/12/16 05:35:49;;;;;;;2.55;1.60;;;;;;;0.63;75.29;94878.81;2050974;70;20957;-84
2023/12/16 05:38:14;;;;;;;2.55;1.67;;;;;;;0.63;75.31;94868.47;2050899;70;20162;-84
2023/12/16 05:40:40;;;;;;;5.80;4.20;;;;;;;0.53;75.25;94874.72;2051644;69;20150;-85
2023/12/16 05:43:07;;;;;;;3.03;2.10;;;;;;;0.62;74.81;94888.41;2050999;70;20180;-85
2023/12/16 05:45:33;;;;;;;2.60;1.80;;;;;;;0.70;75.10;94889.47;2051667;70;20152;-85
2023/12/16 05:48:00;;;;;;;2.55;1.60;;;;;;;0.64;74.61;94889.44;2050928;70;20161;-84
2023/12/16 05:50:26;;;;;;;2.40;1.42;;;;;;;0.69;74.27;94899.03;2051692;70;20566;-85
2023/12/16 05:52:54;;;;;;;2.88;1.50;;;;;;;0.53;73.66;94900.41;2051638;69;20153;-84
2023/12/16 05:55:20;;;;;;;2.72;1.60;;;;;;;0.64;72.47;94899.72;2051738;70;20700;-84
2023/12/16 05:57:45;;;;;;;1.63;1.35;;;;;;;0.66;73.42;94895.22;2051139;70;20591;-85
2023/12/16 06:00:12;;;;;;;2.88;1.50;;;;;;;0.62;74.32;94900.25;2051891;69;20272;-84
2023/12/16 06:02:37;;;;;;;2.67;1.60;;;;;;;0.54;74.03;94896.38;2051695;70;20233;-85
2023/12/16 06:05:03;;;;;;;1.95;1.60;;;;;;;0.29;74.84;94897.22;2051876;69;20148;-84
2023/12/16 06:07:30;;;;;;;2.88;1.30;;;;;;;0.41;73.90;94918.19;2051334;70;20176;-82
2023/12/16 06:09:55;;;;;;;2.08;1.45;;;;;;;0.43;72.47;94918.50;2051917;70;20154;-82
2023/12/16 06:12:21;;;;;;;3.30;1.52;;;;;;;0.49;72.56;94919.28;2051848;70;20150;-86
2023/12/16 06:14:47;;;;;;;2.00;1.42;;;;;;;0.52;72.69;94921.09;2051828;70;20139;-85
2023/12/16 06:17:12;;;;;;;2.17;1.50;;;;;;;0.58;72.58;94918.34;2052160;70;20146;-82
2023/12/16 06:19:39;;;;;;;2.53;1.30;;;;;;;0.60;72.66;94918.63;2052189;70;20146;-86
2023/12/16 06:22:04;;;;;;;2.40;1.42;;;;;;;0.60;73.19;94913.84;2052149;70;20230;-85
2023/12/16 06:24:31;;;;;;;2.17;1.20;;;;;;;0.59;73.24;94919.88;2051707;70;20167;-82
2023/12/16 06:26:56;;;;;;;2.72;1.17;;;;;;;0.57;73.46;94922.38;2051721;70;20546;-84
2023/12/16 06:29:22;;;;;;;1.98;1.48;;;;;;;0.50;73.68;94929.13;2051887;70;20142;-83
2023/12/16 06:31:47;;;;;;;2.90;1.60;;;;;;;0.53;73.72;94930.16;2051465;70;20147;-81
2023/12/16 06:34:16;;;;;;;1.90;1.38;;;;;;;0.49;74.25;94955.31;2051367;70;20538;-83
2023/12/16 06:36:42;;;;;;;2.55;1.30;;;;;;;0.48;74.25;94951.78;2051082;70;20146;-81
2023/12/16 06:39:08;;;;;;;3.58;1.80;;;;;;;0.35;73.34;94956.97;2051001;70;20135;-84
2023/12/16 06:41:33;;;;;;;3.55;1.88;;;;;;;0.00;72.59;94959.91;2050943;70;20149;-84
2023/12/16 06:44:00;;;;;;;2.25;1.50;;;;;;;0.33;72.97;94965.00;2051636;69;20265;-85
2023/12/16 06:46:25;;;;;;;2.13;1.48;;;;;;;0.33;71.90;94961.47;2051677;69;20154;-80
2023/12/16 06:48:51;;;;;;;1.98;1.38;;;;;;;0.50;72.39;94967.91;2050879;70;20617;-84
2023/12/16 06:51:17;;;;;;;2.70;1.58;;;;;;;0.44;73.12;94956.78;2050966;70;20149;-82
2023/12/16 06:53:43;;;;;;;3.35;1.65;;;;;;;0.44;72.80;94964.34;2051354;70;20601;-86
2023/12/16 06:56:11;;;;;;;1.92;1.60;;;;;;;0.41;72.82;94963.34;2051497;70;20841;-86
2023/12/16 06:58:37;;;;;;;2.47;1.70;;;;;;;0.37;73.19;94970.34;2051569;70;20161;-85
2023/12/16 07:01:27;;;;;;;2.75;1.83;;;;;;;0.36;72.35;94966.78;2052733;70;20204;-84
2023/12/16 07:04:19;;;;;;;6.60;1.85;;;;;;;0.09;72.59;94920.19;2052567;70;20138;-82
2023/12/16 07:06:44;;;;;;;11.07;1.60;;;;;;;0.46;72.71;94953.53;2051583;69;20174;-85
2023/12/16 07:09:10;;;;;;;2.17;1.50;;;;;;;0.20;71.42;94948.00;2050889;70;20617;-86
2023/12/16 07:11:36;;;;;;;2.17;1.50;;;;;;;0.24;72.49;94951.31;2051245;70;20153;-81
2023/12/16 07:14:05;;;;;;;1.80;1.35;;;;;;;0.30;72.08;94945.81;2051630;70;20590;-83
2023/12/16 07:16:30;;;;;;;2.35;1.63;;;;;;;0.37;72.52;94940.63;2051354;70;20475;-81
2023/12/16 07:18:57;;;;;;;2.38;1.55;;;;;;;0.34;71.18;94952.66;2051197;70;20594;-88
2023/12/16 07:21:24;;;;;;;2.47;1.55;;;;;;;0.37;70.65;94946.16;2055243;69;20141;-91
2023/12/16 07:23:51;;;;;;;11.85;6.05;;;;;;;0.08;69.87;94957.44;2049122;70;20237;-84
2023/12/16 07:26:17;;;;;;;10.27;5.35;;;;;;;0.34;70.64;94952.66;2051650;69;20225;-85
2023/12/16 07:28:43;;;;;;;3.20;1.80;;;;;;;0.21;70.92;94961.34;2052006;69;20248;-86
2023/12/16 07:31:08;;;;;;;3.22;1.80;;;;;;;0.38;71.00;94955.22;2051911;70;20610;-87
2023/12/16 07:33:38;;;;;;;3.00;1.70;;;;;;;0.45;71.49;94936.13;2052546;70;20181;-89
2023/12/16 07:36:04;;;;;;;3.13;1.92;;;;;;;0.43;71.50;94933.09;2052647;69;20166;-89
2023/12/16 07:38:29;;;;;;;3.00;1.85;;;;;;;0.41;71.15;94941.16;2052109;70;20729;-86
2023/12/16 07:40:56;;;;;;;2.97;1.90;;;;;;;0.27;71.90;94932.94;2051604;70;20221;-83
2023/12/16 07:43:22;;;;;;;3.60;2.10;;;;;;;0.37;71.93;94939.84;2052137;70;20143;-88
2023/12/16 07:45:48;;;;;;;4.82;2.15;;;;;;;0.18;71.38;94948.50;2052902;70;20150;-85
2023/12/16 07:48:14;;;;;;;2.92;1.75;;;;;;;-0.01;70.42;94959.09;2057349;70;20205;-80
2023/12/16 07:50:39;;;;;;;2.45;1.63;;;;;;;0.07;71.32;94962.22;2057647;69;20154;-86
2023/12/16 07:53:07;;;;;;;3.08;2.10;;;;;;;0.04;69.44;94948.56;2063810;64;20205;-80
2023/12/16 07:55:33;;;;;;;4.15;1.63;;;;;;;0.32;70.15;94957.94;2069745;69;20152;-84
2023/12/16 07:58:00;;;;;;;3.95;2.17;;;;;;;0.24;69.23;94938.22;2070225;69;20117;-80
2023/12/16 08:00:27;;;;;;;2.47;1.70;;;;;;;0.50;70.03;94965.16;2070167;69;20134;-81
2023/12/16 08:02:52;;;;;;;2.95;1.58;;;;;;;0.46;69.32;94965.38;2069933;69;20611;-80
2023/12/16 08:05:18;;;;;;;4.57;1.70;;;;;;;0.51;69.68;94969.47;2070655;69;20145;-79
2023/12/16 08:07:45;;;;;;;2.90;1.67;;;;;;;0.43;70.08;94969.13;2070963;69;20144;-86
2023/12/16 08:10:11;;;;;;;2.50;1.75;;;;;;;0.54;70.94;94976.03;2069039;69;20297;-84
2023/12/16 08:12:36;;;;;;;2.58;1.70;;;;;;;0.58;71.08;94973.78;2067910;69;20177;-80
2023/12/16 08:15:04;;;;;;;2.65;1.75;;;;;;;0.48;69.78;94971.19;2065375;69;20489;-80
2023/12/16 08:17:29;;;;;;;2.78;1.85;;;;;;;0.57;70.55;94967.50;2065581;69;20149;-79
2023/12/16 08:19:56;;;;;;;3.22;1.83;;;;;;;0.56;69.97;94970.75;2065163;69;20149;-78
2023/12/16 08:22:22;;;;;;;4.13;2.00;;;;;;;0.25;70.77;94975.75;2063846;69;20180;-78
2023/12/16 08:24:48;;;;;;;4.88;2.08;;;;;;;0.27;69.66;94964.19;2070629;69;20141;-78
2023/12/16 08:27:13;;;;;;;2.83;1.80;;;;;;;0.59;70.50;94958.69;2070296;69;20752;-85
2023/12/16 08:29:39;;;;;;;5.03;1.85;;;;;;;0.40;71.24;94963.78;2071002;69;20144;-79
2023/12/16 08:32:05;;;;;;;3.58;1.98;;;;;;;0.64;70.38;94969.84;2070111;69;20355;-83
2023/12/16 08:34:31;;;;;;;3.80;2.20;;;;;;;0.58;70.17;94979.34;2064412;69;20148;-80
2023/12/16 08:36:57;;;;;;;4.43;2.38;;;;;;;0.68;70.76;94978.66;2061729;69;20161;-82
2023/12/16 08:39:22;;;;;;;5.13;2.67;;;;;;;0.73;71.06;94983.53;2065660;69;20535;-84
2023/12/16 08:41:48;;;;;;;6.10;2.42;;;;;;;0.82;70.52;94984.56;2064526;69;20148;-81
2023/12/16 08:44:13;;;;;;;8.18;4.32;;;;;;;0.40;70.93;94986.72;2065842;69;20157;-88
2023/12/16 08:46:41;;;;;;;14.32;7.00;;;;;;;0.28;73.33;95001.75;2066163;69;20496;-80
2023/12/16 08:49:06;;;;;;;16.08;7.70;;;;;;;0.38;73.64;95008.63;2065936;69;20236;-83
2023/12/16 08:51:33;;;;;;;10.88;5.60;;;;;;;0.57;73.38;95005.53;2065723;69;20259;-84
2023/12/16 08:54:00;;;;;;;11.00;5.80;;;;;;;1.06;74.31;95003.69;2064803;69;20152;-80
2023/12/16 08:56:25;;;;;;;10.90;5.20;;;;;;;1.62;74.09;95004.81;2065273;69;20524;-86
2023/12/16 08:58:51;;;;;;;9.50;4.90;;;;;;;1.95;76.11;95017.34;2064986;69;20176;-83
2023/12/16 09:01:16;;;;;;;7.68;4.50;;;;;;;2.22;74.05;95002.78;2064346;69;20169;-85
2023/12/16 09:03:43;;;;;;;7.32;4.28;;;;;;;2.19;71.16;95006.56;2064849;69;20149;-82
2023/12/16 09:06:09;;;;;;;5.50;3.35;;;;;;;2.61;70.14;95015.25;2064440;69;20138;-83
2023/12/16 09:08:35;;;;;;;14.65;8.45;;;;;;;2.83;70.00;95017.31;2064776;69;20144;-86
2023/12/16 09:11:01;;;;;;;15.05;8.65;;;;;;;3.12;69.20;95013.31;2064919;69;20473;-82
2023/12/16 09:13:26;;;;;;;13.13;6.85;;;;;;;3.36;67.61;95007.22;2061529;69;20140;-80
2023/12/16 09:15:52;;;;;;;15.95;7.60;;;;;;;3.65;69.24;95001.06;2064302;69;20258;-82
2023/12/16 09:18:18;;;;;;;10.80;5.68;;;;;;;3.59;66.22;95010.72;2064313;69;20144;-80
2023/12/16 09:20:43;;;;;;;9.73;4.38;;;;;;;3.98;67.23;95008.56;2064956;69;20156;-81
2023/12/16 09:23:09;;;;;;;7.15;3.70;;;;;;;4.18;68.61;95006.75;2064669;69;20145;-85
2023/12/16 09:25:35;;;;;;;9.50;4.45;;;;;;;4.37;67.10;95012.47;2064316;69;20137;-80
2023/12/16 09:28:00;;;;;;;7.55;4.28;;;;;;;4.47;64.72;95002.53;2064329;69;20214;-84
2023/12/16 09:30:26;;;;;;;8.13;4.93;;;;;;;4.69;63.78;94999.63;2064901;69;20597;-86
2023/12/16 09:32:51;;;;;;;8.30;5.32;;;;;;;4.48;63.25;94999.22;2064176;69;20210;-84
2023/12/16 09:35:17;;;;;;;11.35;5.55;;;;;;;4.69;63.01;95004.44;2061543;69;20187;-86
2023/12/16 09:37:43;;;;;;;10.35;5.95;;;;;;;5.37;64.03;94999.88;2064849;69;20203;-85
2023/12/16 09:40:09;;;;;;;9.38;5.55;;;;;;;5.13;63.10;94999.81;2064133;69;20141;-87
2023/12/16 09:42:38;;;;;;;7.10;3.97;;;;;;;5.63;63.10;95004.19;2064944;69;20153;-86
2023/12/16 09:45:04;;;;;;;9.70;5.00;;;;;;;5.26;63.42;95002.75;2064776;69;20161;-86
2023/12/16 09:47:30;;;;;;;8.48;5.03;;;;;;;5.93;61.47;94987.41;2064277;69;20644;-85
2023/12/16 09:50:00;;;;;;;5.85;3.65;;;;;;;4.65;61.77;94970.47;2064877;69;20247;-86
2023/12/16 09:52:29;;;;;;;4.35;2.90;;;;;;;5.55;61.03;94979.63;2064967;69;20137;-85
2023/12/16 09:54:55;;;;;;;5.85;3.60;;;;;;;6.28;60.52;94981.66;2064031;69;20164;-85
2023/12/16 09:57:22;;;;;;;6.65;3.88;;;;;;;5.99;57.64;94979.69;2064678;69;20125;-85
2023/12/16 09:59:48;;;;;;;5.68;3.78;;;;;;;5.17;59.98;95003.06;2064210;69;20156;-81
2023/12/16 10:02:27;;;;;;;4.07;2.75;;;;;;;6.01;62.21;95007.91;2064718;69;20720;-85
2023/12/16 10:04:58;;;;;;;5.13;3.13;;;;;;;6.20;59.35;94993.97;2064344;69;20605;-82
2023/12/16 10:07:26;;;;;;;6.18;3.30;;;;;;;7.04;60.04;94982.34;2064900;69;20605;-85
2023/12/16 10:09:53;;;;;;;7.65;3.40;;;;;;;7.60;58.23;94978.59;2064661;69;20137;-84
2023/12/16 10:12:19;;;;;;;5.15;3.20;;;;;;;7.68;55.81;94969.56;2065210;69;20524;-87
2023/12/16 10:14:50;;;;;;;3.47;2.25;;;;;;;7.26;53.05;94975.63;2065352;69;20280;-90
2023/12/16 10:17:16;;;;;;;13.05;4.50;;;;;;;5.86;55.42;94977.53;2064789;69;20236;-88
2023/12/16 10:19:46;;;;;;;6.22;3.63;;;;;;;6.18;57.93;94971.34;2065610;69;20160;-92
2023/12/16 10:22:13;;;;;;;7.55;3.40;;;;;;;6.52;58.16;94964.03;2065342;69;20244;-91
2023/12/16 10:24:41;;;;;;;3.30;2.25;;;;;;;6.70;57.92;94961.75;2064769;69;20156;-79
2023/12/16 10:27:07;;;;;;;4.03;2.10;;;;;;;6.22;57.43;94961.34;2064787;69;20244;-82
2023/12/16 10:29:33;;;;;;;5.40;2.47;;;;;;;6.20;56.17;94975.13;2065387;69;20496;-79
2023/12/16 10:31:59;;;;;;;9.27;4.68;;;;;;;6.64;55.39;94987.00;2065134;69;20550;-80
2023/12/16 10:34:31;;;;;;;8.20;5.03;;;;;;;6.40;57.05;94976.66;2065246;69;20585;-79
2023/12/16 10:37:06;;;;;;;16.95;8.80;;;;;;;6.04;57.64;94982.41;2065373;69;20141;-82
2023/12/16 10:39:33;;;;;;;14.15;8.32;;;;;;;6.21;56.79;94973.84;2064705;69;20141;-80
2023/12/16 10:41:59;;;;;;;15.98;9.55;;;;;;;6.40;58.10;94975.91;2066757;69;20228;-79
2023/12/16 10:44:25;;;;;;;13.90;7.97;;;;;;;6.79;57.39;94966.97;2066965;69;20592;-79
2023/12/16 10:46:53;;;;;;;15.82;8.20;;;;;;;5.25;58.43;94976.09;2066811;69;20580;-83
2023/12/16 10:49:26;;;;;;;19.17;9.80;;;;;;;5.23;58.98;94985.00;2065816;69;20153;-81
2023/12/16 10:52:06;;;;;;;18.75;10.20;;;;;;;7.59;56.14;94967.94;2065423;69;20149;-79
2023/12/16 10:54:43;;;;;;;18.65;10.82;;;;;;;7.11;56.13;94969.78;2066227;69;20176;-80
2023/12/16 10:57:50;;;;;;;17.83;10.38;;;;;;;8.61;53.56;94964.66;2066525;69;20177;-78
2023/12/16 11:00:22;;;;;;;14.40;8.63;;;;;;;8.02;52.95;94961.28;2060287;69;20133;-79
2023/12/16 11:03:00;;;;;;;8.63;5.80;;;;;;;8.96;50.28;94959.81;2065429;69;20137;-80
2023/12/16 11:05:36;;;;;;;15.45;7.40;;;;;;;6.96;52.57;94963.88;2066090;69;20137;-80
2023/12/16 11:08:02;;;;;;;23.42;11.75;;;;;;;5.50;56.90;94957.34;2067149;69;20172;-80
2023/12/16 11:10:32;;;;;;;17.58;9.80;;;;;;;6.58;56.37;94966.75;2066412;69;20155;-81
2023/12/16 11:13:02;;;;;;;20.20;11.45;;;;;;;6.14;56.17;94965.28;2064876;69;20206;-82
2023/12/16 11:15:29;;;;;;;15.18;8.68;;;;;;;6.21;55.94;94959.84;2065438;69;20178;-83
2023/12/16 11:18:17;;;;;;;15.60;9.13;;;;;;;6.09;56.93;94967.63;2065559;69;20152;-81
2023/12/16 11:20:47;;;;;;;13.07;7.63;;;;;;;6.56;56.35;94964.47;2063816;69;20149;-78
2023/12/16 11:23:17;;;;;;;14.05;8.65;;;;;;;7.14;56.45;94955.44;2066590;69;20153;-80
2023/12/16 11:25:43;;;;;;;14.55;8.20;;;;;;;7.32;54.36;94951.06;2065001;69;20164;-81
2023/12/16 11:28:09;;;;;;;13.27;8.20;;;;;;;7.33;54.44;94946.22;2065758;69;20600;-78
2023/12/16 11:30:35;;;;;;;20.20;8.15;;;;;;;7.31;55.79;94940.41;2065012;69;20148;-85
2023/12/16 11:33:01;;;;;;;11.63;7.05;;;;;;;6.18;56.98;94940.56;2064891;69;20161;-80
2023/12/16 11:35:36;;;;;;;12.02;7.95;;;;;;;6.88;57.27;94944.16;2062641;69;20148;-80